Time;durP1;ratioP1;P1;durP2;ratioP2;P2;SDS_P1;SDS_P2;PMS_P1;PMS_P2;Temp;Humidity;BMP_temperature;BMP_pressure;BME280_temperature;BME280_humidity;BME280_pressure;Samples;Min_cycle;Max_cycle;Signal;HPM_P1;HPM_P2
2022/11/12 00:02:34;;;;;;;8.15;6.22;;;13.20;96.70;;;;;;5061072;28;20066;-74
2022/11/12 00:05:59;;;;;;;;;;;13.00;96.70;;;;;;5061141;28;20056;-74
2022/11/12 00:09:08;;;;;;;9.63;5.35;;;13.20;96.70;;;;;;5031846;28;20399;-74
2022/11/12 00:11:55;;;;;;;8.20;5.95;;;13.30;96.70;;;;;;5037950;28;20056;-73
2022/11/12 00:14:43;;;;;;;8.95;6.07;;;13.40;96.70;;;;;;5015547;28;20208;-73
2022/11/12 00:17:30;;;;;;;9.77;5.80;;;13.50;96.70;;;;;;5022481;28;20100;-74
2022/11/12 00:20:17;;;;;;;7.53;5.18;;;13.50;96.70;;;;;;5014422;28;20179;-74
2022/11/12 00:23:03;;;;;;;8.20;6.13;;;13.40;96.70;;;;;;5033891;28;20044;-74
2022/11/12 00:25:58;;;;;;;8.75;5.45;;;13.50;96.70;;;;;;5025462;28;20067;-73
2022/11/12 00:28:44;;;;;;;8.85;6.18;;;13.50;96.70;;;;;;5030419;28;20528;-74
2022/11/12 00:31:33;;;;;;;8.02;6.30;;;13.50;96.70;;;;;;5013915;28;20059;-74
2022/11/12 00:34:20;;;;;;;7.78;6.03;;;13.50;96.70;;;;;;5035230;28;20741;-74
2022/11/12 00:37:07;;;;;;;9.45;5.72;;;13.50;96.70;;;;;;5020423;28;20073;-75
2022/11/12 00:39:53;;;;;;;6.10;5.20;;;13.50;96.70;;;;;;5022359;28;20064;-74
2022/11/12 00:42:40;;;;;;;9.77;6.50;;;13.30;96.70;;;;;;5010908;28;20570;-74
2022/11/12 00:45:26;;;;;;;9.03;6.40;;;13.30;96.70;;;;;;5041169;28;20111;-74
2022/11/12 00:48:14;;;;;;;8.70;5.95;;;13.30;96.70;;;;;;5061376;28;20616;-74
2022/11/12 00:51:02;;;;;;;9.02;6.85;;;13.30;96.70;;;;;;5058831;28;20056;-74
2022/11/12 00:53:50;;;;;;;8.35;6.72;;;13.30;96.70;;;;;;5056380;28;20074;-74
2022/11/12 00:56:36;;;;;;;9.60;6.15;;;13.30;96.70;;;;;;5056692;28;20138;-73
2022/11/12 00:59:23;;;;;;;8.85;6.47;;;13.30;96.70;;;;;;5057508;28;20126;-74
2022/11/12 01:02:09;;;;;;;10.63;6.60;;;13.30;96.70;;;;;;5059808;28;20051;-74
2022/11/12 01:04:57;;;;;;;7.25;6.00;;;13.30;96.70;;;;;;5065036;28;20067;-74
2022/11/12 01:07:44;;;;;;;9.13;6.65;;;13.20;96.70;;;;;;5053063;28;20087;-75
2022/11/12 01:10:30;;;;;;;11.95;6.18;;;13.20;96.70;;;;;;5060997;28;20653;-74
2022/11/12 01:13:16;;;;;;;7.65;5.78;;;13.20;96.70;;;;;;5063200;28;20067;-74
2022/11/12 01:16:06;;;;;;;8.68;5.78;;;13.20;96.70;;;;;;5057323;28;20115;-74
2022/11/12 01:18:54;;;;;;;9.38;5.85;;;13.20;96.70;;;;;;5060314;28;20066;-74
2022/11/12 01:21:43;;;;;;;7.40;5.65;;;13.10;96.70;;;;;;5058644;28;20534;-74
2022/11/12 01:24:30;;;;;;;7.65;5.40;;;13.10;96.70;;;;;;5055965;28;20054;-74
2022/11/12 01:27:16;;;;;;;7.07;5.50;;;13.10;96.70;;;;;;5051482;28;20134;-74
2022/11/12 01:30:04;;;;;;;7.20;5.93;;;13.10;96.70;;;;;;5052584;28;20094;-74
2022/11/12 01:32:51;;;;;;;7.95;5.72;;;13.00;96.70;;;;;;5059950;28;20071;-75
2022/11/12 01:35:37;;;;;;;8.63;5.60;;;13.00;96.70;;;;;;5058851;28;20521;-73
2022/11/12 01:38:25;;;;;;;7.45;6.00;;;13.00;96.70;;;;;;5059902;28;20060;-74
2022/11/12 01:41:18;;;;;;;8.57;6.05;;;12.90;96.70;;;;;;5061005;28;20051;-74
2022/11/12 01:44:09;;;;;;;8.35;5.85;;;12.90;96.70;;;;;;5060191;28;20089;-74
2022/11/12 01:47:01;;;;;;;8.15;5.82;;;12.90;96.70;;;;;;5064142;28;20105;-74
2022/11/12 01:49:52;;;;;;;5.40;4.85;;;12.90;96.70;;;;;;5062657;28;20107;-74
2022/11/12 01:52:45;;;;;;;7.75;5.65;;;12.80;96.70;;;;;;5064290;28;20061;-74
2022/11/12 01:55:36;;;;;;;7.78;5.93;;;12.80;96.70;;;;;;5062408;28;20055;-75
2022/11/12 01:58:27;;;;;;;10.85;6.65;;;12.80;96.70;;;;;;5052865;28;20493;-74
2022/11/12 02:01:14;;;;;;;10.60;7.40;;;12.80;96.70;;;;;;5059619;28;20062;-74
2022/11/12 02:04:00;;;;;;;7.78;6.15;;;12.70;96.70;;;;;;5051975;28;20063;-75
2022/11/12 02:06:49;;;;;;;9.05;6.82;;;12.80;96.70;;;;;;5059217;28;20059;-74
2022/11/12 02:09:36;;;;;;;9.32;6.20;;;12.80;96.70;;;;;;5057077;28;20118;-75
2022/11/12 02:15:29;;;;;;;7.78;5.57;;;12.80;96.70;;;;;;5059150;28;20051;-74
2022/11/12 02:18:16;;;;;;;7.38;5.85;;;12.70;96.70;;;;;;5057850;28;20440;-74
2022/11/12 02:21:06;;;;;;;6.35;5.07;;;12.70;96.70;;;;;;5058143;28;21061;-74
2022/11/12 02:24:03;;;;;;;7.13;5.65;;;12.60;96.70;;;;;;5059034;28;20587;-74
2022/11/12 02:26:54;;;;;;;10.80;5.25;;;12.70;96.70;;;;;;5057488;28;20130;-74
2022/11/12 02:29:45;;;;;;;7.10;5.38;;;12.70;96.70;;;;;;5054940;28;20552;-74
2022/11/12 02:32:31;;;;;;;8.52;5.70;;;12.60;96.70;;;;;;5054173;28;20086;-74
2022/11/12 02:35:18;;;;;;;7.25;5.57;;;12.50;96.70;;;;;;5060694;28;20055;-74
2022/11/12 02:38:05;;;;;;;9.18;5.45;;;12.60;96.70;;;;;;5048871;28;20190;-74
2022/11/12 02:40:54;;;;;;;8.95;5.78;;;12.30;96.70;;;;;;5063988;28;20047;-74
2022/11/12 02:43:41;;;;;;;8.30;5.97;;;12.30;96.70;;;;;;5055667;28;20414;-74
2022/11/12 02:46:27;;;;;;;;;;;12.30;96.70;;;;;;5062050;28;20060;-74
2022/11/12 02:49:14;;;;;;;5.20;4.65;;;12.30;96.70;;;;;;5061286;28;19931;-74
2022/11/12 02:52:01;;;;;;;5.03;3.97;;;12.40;96.70;;;;;;5061212;28;20550;-74
2022/11/12 02:54:48;;;;;;;5.47;4.68;;;12.40;96.70;;;;;;5061269;28;20054;-74
2022/11/12 02:57:38;;;;;;;6.68;4.75;;;12.40;96.70;;;;;;5050246;28;20052;-74
2022/11/12 03:00:25;;;;;;;5.72;4.38;;;12.40;96.70;;;;;;5060189;28;20047;-74
2022/11/12 03:03:12;;;;;;;6.47;4.43;;;12.40;96.70;;;;;;5059268;28;20056;-75
2022/11/12 03:06:00;;;;;;;6.40;4.20;;;12.40;96.70;;;;;;5058400;28;20087;-74
2022/11/12 03:08:47;;;;;;;7.40;5.25;;;12.40;96.70;;;;;;5050605;28;20060;-75
2022/11/12 03:11:34;;;;;;;5.00;3.83;;;12.40;96.70;;;;;;5053979;28;20060;-75
2022/11/12 03:14:22;;;;;;;8.20;4.32;;;12.40;96.70;;;;;;5057083;28;20064;-76
2022/11/12 03:17:09;;;;;;;5.97;4.28;;;12.30;96.70;;;;;;5054786;28;20194;-76
2022/11/12 03:19:56;;;;;;;;;;;12.30;96.70;;;;;;5054807;28;20974;-74
2022/11/12 03:22:54;;;;;;;5.25;3.63;;;12.20;96.70;;;;;;5059829;28;20040;-74
2022/11/12 03:25:41;;;;;;;4.95;3.17;;;12.10;96.70;;;;;;5059040;28;20055;-74
2022/11/12 03:28:28;;;;;;;4.18;2.80;;;12.10;96.70;;;;;;5059365;28;20170;-74
2022/11/12 03:31:17;;;;;;;6.43;2.33;;;12.00;96.70;;;;;;5057194;28;20056;-74
2022/11/12 03:34:03;;;;;;;4.22;2.30;;;12.00;96.70;;;;;;5058654;28;20446;-74
2022/11/12 03:36:50;;;;;;;3.60;2.60;;;12.00;96.70;;;;;;5053475;28;20056;-74
2022/11/12 03:39:37;;;;;;;3.40;1.90;;;12.00;96.70;;;;;;5060396;28;20731;-74
2022/11/12 03:42:24;;;;;;;2.35;2.05;;;12.00;96.70;;;;;;5060725;28;20881;-74
2022/11/12 03:45:11;;;;;;;2.75;1.80;;;11.90;96.70;;;;;;5056027;28;20051;-74
2022/11/12 03:47:59;;;;;;;3.47;1.75;;;11.90;96.70;;;;;;5061033;28;20123;-75
2022/11/12 03:50:45;;;;;;;3.58;2.00;;;11.90;96.70;;;;;;5053840;28;20055;-74
2022/11/12 03:53:32;;;;;;;2.80;2.08;;;11.80;96.70;;;;;;5058653;28;20090;-73
2022/11/12 03:56:19;;;;;;;4.00;2.80;;;11.80;96.70;;;;;;5060192;28;20410;-74
2022/11/12 03:59:06;;;;;;;3.17;2.47;;;11.80;96.70;;;;;;5054058;28;20058;-74
2022/11/12 04:01:53;;;;;;;3.17;2.63;;;11.80;96.70;;;;;;5054097;28;20185;-73
2022/11/12 04:10:54;;;;;;;3.35;2.40;;;11.70;96.70;;;;;;5061570;28;20583;-73
2022/11/12 04:13:44;;;;;;;3.88;2.67;;;11.80;96.70;;;;;;5060661;28;20100;-73
2022/11/12 04:22:43;;;;;;;4.65;2.80;;;11.70;96.70;;;;;;5063963;28;20136;-73
2022/11/12 04:28:37;;;;;;;5.45;3.15;;;11.70;96.70;;;;;;5060689;28;20056;-74
2022/11/12 04:31:23;;;;;;;5.57;2.92;;;11.70;96.70;;;;;;5060431;28;20067;-74
2022/11/12 04:34:28;;;;;;;5.53;3.35;;;11.80;96.70;;;;;;5060582;28;20060;-74
2022/11/12 04:37:15;;;;;;;5.07;3.45;;;11.80;96.70;;;;;;5055695;28;20544;-74
2022/11/12 04:46:23;;;;;;;5.68;3.08;;;11.80;96.70;;;;;;5059126;28;20463;-74
2022/11/12 04:49:09;;;;;;;5.07;3.20;;;11.70;96.70;;;;;;5057776;28;20402;-74
2022/11/12 04:52:06;;;;;;;3.75;3.10;;;11.60;96.70;;;;;;5052709;28;20106;-74
2022/11/12 04:54:53;;;;;;;3.75;3.35;;;11.60;96.70;;;;;;5056690;28;20048;-73
2022/11/12 04:57:41;;;;;;;4.70;3.55;;;11.70;96.70;;;;;;5051843;28;20067;-74
2022/11/12 05:00:29;;;;;;;4.95;3.38;;;11.70;96.70;;;;;;5064998;28;20225;-74
2022/11/12 05:03:16;;;;;;;4.63;3.17;;;11.70;96.70;;;;;;5062169;28;20099;-74
2022/11/12 05:06:03;;;;;;;;;;;11.60;96.70;;;;;;5062082;28;20122;-75
2022/11/12 05:08:50;;;;;;;4.78;2.85;;;11.70;96.70;;;;;;5061702;28;19930;-74
2022/11/12 05:11:37;;;;;;;4.18;3.10;;;11.70;96.70;;;;;;5057376;28;20177;-74
2022/11/12 05:14:25;;;;;;;3.78;3.00;;;11.70;96.70;;;;;;5059837;28;20497;-74
2022/11/12 05:17:12;;;;;;;5.80;3.38;;;11.70;96.70;;;;;;5059206;28;20051;-73
2022/11/12 05:20:00;;;;;;;3.80;2.90;;;11.70;96.70;;;;;;5064371;28;20146;-74
2022/11/12 05:22:46;;;;;;;5.05;2.92;;;11.60;96.70;;;;;;5051495;28;20048;-74
2022/11/12 05:25:51;;;;;;;3.55;2.60;;;11.60;96.70;;;;;;5062209;28;20087;-74
2022/11/12 05:28:38;;;;;;;3.20;2.50;;;11.60;96.70;;;;;;5057272;28;20603;-73
2022/11/12 05:31:27;;;;;;;3.60;2.03;;;11.50;96.70;;;;;;5053165;28;20414;-73
2022/11/12 05:34:14;;;;;;;3.85;2.03;;;11.50;96.70;;;;;;5060346;28;20071;-75
2022/11/12 05:37:09;;;;;;;2.03;1.67;;;11.50;96.70;;;;;;5056986;28;20172;-74
2022/11/12 05:39:56;;;;;;;3.05;2.22;;;11.50;96.70;;;;;;5060001;28;20059;-74
2022/11/12 05:42:44;;;;;;;2.88;2.03;;;11.40;96.70;;;;;;5061252;28;20115;-74
2022/11/12 05:45:31;;;;;;;2.50;1.80;;;11.50;96.70;;;;;;5056719;28;20051;-75
2022/11/12 05:48:19;;;;;;;;;;;11.50;96.70;;;;;;5056586;28;20055;-74
2022/11/12 05:51:12;;;;;;;5.18;2.17;;;11.50;96.70;;;;;;5059918;28;20005;-75
2022/11/12 05:54:00;;;;;;;3.40;2.10;;;11.50;96.70;;;;;;5062045;28;20114;-75
2022/11/12 05:56:47;;;;;;;2.78;1.98;;;11.50;96.70;;;;;;5058442;28;20740;-74
2022/11/12 05:59:34;;;;;;;2.28;1.88;;;11.40;96.70;;;;;;5055906;28;20052;-74
2022/11/12 06:02:21;;;;;;;2.72;2.05;;;11.40;96.70;;;;;;5064829;28;20055;-75
2022/11/12 06:05:10;;;;;;;5.00;2.10;;;11.40;96.70;;;;;;5061788;28;20052;-75
2022/11/12 06:07:57;;;;;;;3.40;2.42;;;11.50;96.70;;;;;;5056459;28;20126;-76
2022/11/12 06:10:48;;;;;;;3.50;2.08;;;11.40;96.70;;;;;;5063729;28;20129;-74
2022/11/12 06:13:35;;;;;;;2.47;1.92;;;11.40;96.70;;;;;;5060899;28;20051;-74
2022/11/12 06:16:22;;;;;;;4.30;2.00;;;11.40;96.70;;;;;;5057342;28;20055;-74
2022/11/12 06:19:09;;;;;;;;;;;11.40;96.70;;;;;;5060034;28;20055;-74
2022/11/12 06:21:57;;;;;;;2.33;1.80;;;11.40;96.70;;;;;;5063159;28;19950;-75
2022/11/12 06:24:44;;;;;;;3.53;1.90;;;11.40;96.70;;;;;;5058314;28;20055;-74
2022/11/12 06:27:31;;;;;;;3.85;2.22;;;11.30;96.70;;;;;;5056978;28;20075;-75
2022/11/12 06:30:18;;;;;;;;;;;11.30;96.70;;;;;;5056013;28;20440;-75
2022/11/12 06:33:11;;;;;;;3.63;1.90;;;11.30;96.70;;;;;;5052207;28;20432;-74
2022/11/12 06:36:01;;;;;;;3.05;2.00;;;11.30;96.70;;;;;;5053862;28;20168;-74
2022/11/12 06:38:50;;;;;;;2.40;1.85;;;11.40;96.70;;;;;;5057556;28;20047;-75
2022/11/12 06:41:37;;;;;;;4.00;2.00;;;11.50;96.70;;;;;;5062086;28;20055;-76
2022/11/12 06:44:24;;;;;;;2.47;2.15;;;11.50;96.70;;;;;;5051377;28;20055;-76
2022/11/12 06:47:10;;;;;;;5.00;2.30;;;11.50;96.70;;;;;;5058136;28;20075;-75
2022/11/12 06:49:57;;;;;;;5.15;2.10;;;11.50;96.70;;;;;;5057367;28;20051;-75
2022/11/12 06:52:43;;;;;;;2.72;2.20;;;11.60;96.70;;;;;;5057352;28;20054;-76
2022/11/12 06:55:31;;;;;;;2.90;2.03;;;11.60;96.70;;;;;;5060134;28;20052;-74
2022/11/12 06:58:17;;;;;;;4.18;2.58;;;11.60;96.70;;;;;;5055623;28;20051;-74
2022/11/12 07:01:06;;;;;;;5.43;2.40;;;11.50;96.70;;;;;;5051918;28;21565;-74
2022/11/12 07:03:56;;;;;;;5.68;2.90;;;11.60;96.70;;;;;;5060922;28;20055;-74
2022/11/12 07:06:43;;;;;;;5.05;3.22;;;11.50;96.70;;;;;;5060095;28;20605;-76
2022/11/12 07:09:29;;;;;;;3.85;3.15;;;11.60;96.70;;;;;;5059098;28;20071;-74
2022/11/12 07:12:17;;;;;;;6.53;2.95;;;11.50;96.70;;;;;;5057383;28;20071;-75
2022/11/12 07:15:04;;;;;;;7.07;3.13;;;11.60;96.70;;;;;;5055668;28;20097;-76
2022/11/12 07:17:51;;;;;;;3.72;2.38;;;11.60;96.70;;;;;;5052027;28;20514;-74
2022/11/12 07:20:37;;;;;;;4.97;2.85;;;11.70;96.70;;;;;;5057340;28;20056;-75
2022/11/12 07:23:24;;;;;;;8.18;3.58;;;11.70;96.70;;;;;;5053043;28;20063;-75
2022/11/12 07:26:16;;;;;;;4.00;2.95;;;11.80;96.70;;;;;;5050324;28;20066;-74
2022/11/12 07:29:06;;;;;;;5.00;3.10;;;11.90;96.70;;;;;;5052577;28;20373;-74
2022/11/12 07:31:52;;;;;;;4.95;3.10;;;11.90;96.70;;;;;;5049108;28;20060;-74
2022/11/12 07:34:38;;;;;;;7.57;3.35;;;11.90;96.70;;;;;;5050558;28;20083;-74
2022/11/12 07:37:25;;;;;;;4.72;3.10;;;11.90;96.70;;;;;;5050468;28;20063;-75
2022/11/12 07:40:11;;;;;;;10.25;6.55;;;11.90;96.70;;;;;;5048431;28;20055;-74
2022/11/12 07:42:58;;;;;;;18.38;13.27;;;12.00;96.70;;;;;;5054372;28;20133;-73
2022/11/12 07:45:46;;;;;;;22.77;17.40;;;12.10;96.70;;;;;;5056160;28;20608;-73
2022/11/12 07:48:32;;;;;;;27.40;20.65;;;12.10;96.70;;;;;;5056040;28;20117;-74
2022/11/12 07:51:21;;;;;;;23.85;19.27;;;12.10;96.70;;;;;;5058632;28;20187;-74
2022/11/12 07:54:07;;;;;;;15.05;11.85;;;12.20;96.70;;;;;;5061732;28;20182;-75
2022/11/12 07:56:54;;;;;;;13.48;9.82;;;12.20;96.70;;;;;;5055048;28;20051;-75
2022/11/12 07:59:40;;;;;;;10.45;8.43;;;12.30;96.70;;;;;;5061219;28;20508;-74
2022/11/12 08:02:33;;;;;;;12.00;7.50;;;12.30;96.70;;;;;;5059528;28;20528;-75
2022/11/12 08:05:19;;;;;;;8.63;7.20;;;12.30;96.70;;;;;;5062793;28;20191;-73
2022/11/12 08:08:06;;;;;;;8.68;6.07;;;12.40;96.70;;;;;;5058672;28;20055;-74
2022/11/12 08:10:54;;;;;;;6.80;5.38;;;12.40;96.70;;;;;;5056874;28;20048;-74
2022/11/12 08:13:41;;;;;;;7.40;5.68;;;12.40;96.70;;;;;;5056393;28;20055;-74
2022/11/12 08:16:27;;;;;;;8.02;6.05;;;12.40;96.70;;;;;;5054337;28;20063;-74
2022/11/12 08:19:15;;;;;;;7.30;5.03;;;12.40;96.70;;;;;;5054214;28;20059;-74
2022/11/12 08:22:01;;;;;;;4.95;3.55;;;12.30;96.70;;;;;;5059792;28;20433;-75
2022/11/12 08:24:47;;;;;;;5.47;3.87;;;12.30;96.70;;;;;;5053249;28;20056;-75
2022/11/12 08:27:34;;;;;;;5.63;3.97;;;12.30;96.70;;;;;;5054937;28;20183;-71
2022/11/12 08:30:21;;;;;;;6.10;3.53;;;12.30;96.70;;;;;;5063497;28;20125;-72
2022/11/12 08:33:07;;;;;;;5.95;3.75;;;12.30;96.70;;;;;;5057286;28;20059;-72
2022/11/12 08:35:55;;;;;;;5.45;3.70;;;12.30;96.70;;;;;;5062660;28;20071;-72
2022/11/12 08:38:42;;;;;;;5.28;3.95;;;12.40;96.70;;;;;;5054330;28;20056;-72
2022/11/12 08:41:28;;;;;;;7.65;4.53;;;12.40;96.70;;;;;;5065643;28;20048;-72
2022/11/12 08:44:14;;;;;;;6.63;4.47;;;12.50;96.70;;;;;;5050524;28;20060;-74
2022/11/12 08:47:01;;;;;;;6.38;4.50;;;12.60;96.70;;;;;;5062842;28;20417;-72
2022/11/12 08:49:47;;;;;;;5.15;4.53;;;12.70;96.70;;;;;;5058047;28;20136;-74
2022/11/12 08:52:36;;;;;;;8.88;4.80;;;12.70;96.70;;;;;;5062854;28;20129;-72
2022/11/12 08:55:22;;;;;;;6.63;4.88;;;12.70;96.70;;;;;;5061232;28;20071;-74
2022/11/12 08:58:09;;;;;;;6.70;5.00;;;12.70;96.70;;;;;;5056780;28;20982;-72
2022/11/12 09:00:56;;;;;;;5.40;4.75;;;12.80;96.70;;;;;;5061026;28;20055;-73
2022/11/12 09:03:43;;;;;;;7.47;4.75;;;12.90;96.70;;;;;;5057916;28;20056;-74
2022/11/12 09:06:29;;;;;;;6.38;4.78;;;12.90;96.70;;;;;;5056596;28;20538;-74
2022/11/12 09:09:17;;;;;;;6.85;4.72;;;12.90;96.70;;;;;;5058881;28;20047;-74
2022/11/12 09:12:04;;;;;;;5.28;4.35;;;13.00;96.70;;;;;;5049512;28;20476;-74
2022/11/12 09:15:01;;;;;;;7.22;4.63;;;13.10;96.70;;;;;;5054580;28;20048;-75
2022/11/12 09:18:10;;;;;;;6.35;5.13;;;13.20;96.70;;;;;;5055803;28;20109;-74
2022/11/12 09:21:02;;;;;;;10.05;5.15;;;13.20;96.70;;;;;;5054766;28;20103;-75
2022/11/12 09:23:49;;;;;;;9.90;4.85;;;13.30;96.70;;;;;;5064801;28;20126;-74
2022/11/12 09:26:37;;;;;;;8.00;5.70;;;13.40;96.70;;;;;;5060185;28;20075;-73
2022/11/12 09:29:23;;;;;;;9.07;5.75;;;13.40;96.70;;;;;;5056618;28;20052;-74
2022/11/12 09:32:09;;;;;;;7.97;5.85;;;13.50;96.70;;;;;;5053626;28;20556;-74
2022/11/12 09:34:56;;;;;;;6.47;5.50;;;13.60;96.70;;;;;;5051928;28;20045;-74
2022/11/12 09:37:43;;;;;;;7.75;5.82;;;13.70;96.70;;;;;;5058494;28;20544;-74
2022/11/12 09:40:40;;;;;;;6.97;5.68;;;13.80;96.70;;;;;;5053012;28;20295;-74
2022/11/12 09:43:31;;;;;;;7.95;5.43;;;13.90;96.70;;;;;;5061708;28;20096;-75
2022/11/12 09:46:30;;;;;;;7.00;5.32;;;14.00;96.70;;;;;;5059073;28;20063;-74
2022/11/12 09:49:22;;;;;;;7.13;5.45;;;14.10;96.70;;;;;;5054944;28;20501;-73
2022/11/12 09:52:15;;;;;;;8.93;5.90;;;14.30;96.70;;;;;;5072716;28;20080;-74
2022/11/12 09:55:11;;;;;;;7.07;5.38;;;14.40;96.70;;;;;;5062064;28;20043;-74
2022/11/12 09:57:58;;;;;;;7.47;5.47;;;14.40;96.70;;;;;;5060131;28;20059;-74
2022/11/12 10:00:53;;;;;;;11.07;5.93;;;14.40;96.70;;;;;;5055273;28;20423;-74
2022/11/12 10:03:45;;;;;;;10.98;5.65;;;14.50;96.70;;;;;;5051624;28;20060;-73
2022/11/12 10:06:35;;;;;;;10.02;6.40;;;14.50;96.70;;;;;;5048908;28;20052;-74
2022/11/12 10:09:28;;;;;;;8.82;5.60;;;14.50;96.70;;;;;;5053488;28;20456;-73
2022/11/12 10:12:30;;;;;;;8.38;6.07;;;14.50;96.70;;;;;;5061808;28;20059;-74
2022/11/12 10:19:25;;;;;;;9.13;4.60;;;14.40;96.70;;;;;;5035700;28;20068;-73
2022/11/12 10:22:27;;;;;;;7.93;4.70;;;14.40;96.70;;;;;;5053406;28;20151;-73
2022/11/12 10:25:16;;;;;;;7.13;4.70;;;14.40;96.70;;;;;;5051273;28;20101;-73
2022/11/12 10:28:16;;;;;;;6.85;5.45;;;14.50;96.70;;;;;;5048786;28;20134;-73
2022/11/12 10:31:10;;;;;;;11.07;5.85;;;14.60;96.70;;;;;;5053288;28;20455;-73
2022/11/12 10:34:13;;;;;;;6.47;5.60;;;14.50;96.70;;;;;;5052664;28;20052;-73
2022/11/12 10:37:04;;;;;;;9.70;5.20;;;14.60;96.70;;;;;;5062979;28;20210;-73
2022/11/12 10:39:50;;;;;;;9.43;5.75;;;14.70;96.70;;;;;;5057001;28;20051;-73
2022/11/12 10:42:55;;;;;;;7.57;6.13;;;14.80;96.70;;;;;;5061034;28;20048;-73
2022/11/12 10:45:42;;;;;;;11.68;6.60;;;14.90;96.70;;;;;;5050953;28;20114;-73
2022/11/12 10:48:32;;;;;;;10.55;6.95;;;15.00;96.70;;;;;;5055565;28;20091;-73
2022/11/12 10:51:26;;;;;;;11.25;7.05;;;15.00;96.70;;;;;;5062821;28;20059;-74
2022/11/12 10:54:26;;;;;;;11.88;8.02;;;15.00;96.70;;;;;;5055555;28;20088;-73
2022/11/12 10:57:21;;;;;;;12.63;8.38;;;15.10;96.70;;;;;;5053828;28;20067;-73
2022/11/12 11:00:16;;;;;;;13.10;8.43;;;15.10;96.70;;;;;;5061244;28;20052;-73
2022/11/12 11:03:14;;;;;;;10.63;7.53;;;15.20;96.70;;;;;;5058561;28;20054;-73
2022/11/12 11:06:03;;;;;;;11.80;8.35;;;15.20;96.70;;;;;;5062447;28;20055;-74
2022/11/12 11:08:52;;;;;;;11.45;7.80;;;15.30;96.70;;;;;;5052198;28;20505;-73
2022/11/12 11:11:48;;;;;;;9.35;6.82;;;15.30;96.70;;;;;;5053687;28;20055;-72
2022/11/12 11:14:37;;;;;;;10.98;7.80;;;15.40;96.70;;;;;;5059026;28;20525;-73
2022/11/12 11:17:23;;;;;;;10.77;8.30;;;15.40;96.70;;;;;;5054432;28;20129;-74
2022/11/12 11:20:18;;;;;;;11.30;7.70;;;15.40;96.70;;;;;;5061121;28;20059;-73
2022/11/12 11:23:12;;;;;;;7.68;6.47;;;15.50;96.70;;;;;;5059606;28;20075;-73
2022/11/12 11:26:11;;;;;;;10.13;6.53;;;15.40;96.70;;;;;;5059770;28;20067;-73
2022/11/12 11:29:14;;;;;;;16.52;6.90;;;15.40;96.70;;;;;;5059779;28;20446;-73
2022/11/12 11:32:14;;;;;;;9.75;7.10;;;15.40;96.70;;;;;;5049955;28;20605;-75
2022/11/12 11:35:10;;;;;;;11.35;6.47;;;15.40;96.70;;;;;;5059624;28;20059;-73
2022/11/12 11:38:29;;;;;;;13.82;10.32;;;15.30;96.70;;;;;;5061538;28;20234;-72
2022/11/12 11:41:33;;;;;;;11.52;8.20;;;15.40;96.70;;;;;;5049725;28;20047;-73
2022/11/12 11:44:28;;;;;;;6.10;5.25;;;15.30;96.70;;;;;;5060442;28;20054;-74
2022/11/12 13:45:37;;;;;;;14.73;10.60;;;15.10;96.70;;;;;;5131619;27;20519;-74
2022/11/12 13:48:26;;;;;;;15.98;11.23;;;15.10;96.70;;;;;;5126688;27;20050;-73
2022/11/12 13:51:17;;;;;;;18.65;9.82;;;15.10;96.70;;;;;;5126585;27;20054;-73
2022/11/12 13:54:26;;;;;;;14.43;9.20;;;15.10;96.70;;;;;;5135421;27;20057;-74
2022/11/12 13:57:22;;;;;;;;;;;15.20;96.70;;;;;;5113966;27;20450;-74
2022/11/12 14:00:26;;;;;;;11.60;7.65;;;15.20;96.70;;;;;;5130293;27;19930;-74
2022/11/12 14:03:18;;;;;;;12.95;8.15;;;15.20;96.70;;;;;;5125215;27;20509;-73
2022/11/12 14:06:14;;;;;;;15.52;8.23;;;15.10;96.70;;;;;;5106536;27;20531;-74
2022/11/12 14:09:18;;;;;;;14.98;8.95;;;15.10;96.70;;;;;;5131006;27;20054;-72
2022/11/12 14:12:27;;;;;;;12.05;8.45;;;15.20;96.70;;;;;;5111658;27;20050;-72
2022/11/12 14:15:30;;;;;;;10.98;8.77;;;15.10;96.70;;;;;;5128084;27;20050;-73
2022/11/12 14:18:25;;;;;;;11.93;8.55;;;15.10;96.70;;;;;;5125927;27;20050;-72
2022/11/12 14:21:17;;;;;;;11.48;8.52;;;15.10;96.70;;;;;;5121202;27;20065;-74
2022/11/12 14:24:04;;;;;;;11.10;7.88;;;15.10;96.70;;;;;;5104148;28;20061;-74
2022/11/12 14:26:50;;;;;;;;;;;15.10;96.70;;;;;;5120168;27;20104;-74
2022/11/12 14:29:36;;;;;;;10.35;8.10;;;15.10;96.70;;;;;;5123979;27;20020;-74
2022/11/12 14:32:36;;;;;;;9.55;7.25;;;15.10;96.70;;;;;;5124691;27;20111;-73
2022/11/12 14:35:32;;;;;;;13.57;9.32;;;15.00;96.70;;;;;;5118271;27;20453;-73
2022/11/12 14:38:22;;;;;;;15.15;9.88;;;15.10;96.70;;;;;;5112172;27;20069;-72
2022/11/12 14:41:15;;;;;;;15.90;10.77;;;15.00;96.70;;;;;;5138291;27;20120;-73
2022/11/12 14:44:04;;;;;;;17.75;11.70;;;15.00;96.70;;;;;;5127684;27;20066;-73
2022/11/12 14:46:59;;;;;;;17.58;11.70;;;15.00;96.70;;;;;;5124491;27;20535;-73
2022/11/12 14:49:49;;;;;;;25.98;14.85;;;15.00;96.70;;;;;;5106955;27;20194;-72
2022/11/12 14:52:41;;;;;;;22.58;15.00;;;15.00;96.70;;;;;;5104834;27;20444;-72
2022/11/12 14:55:31;;;;;;;23.50;14.63;;;15.00;96.70;;;;;;5118266;27;20065;-72
2022/11/12 14:58:20;;;;;;;20.08;13.07;;;14.90;96.70;;;;;;5115496;27;20511;-73
2022/11/12 15:01:21;;;;;;;20.08;12.70;;;14.90;96.70;;;;;;5108686;27;20116;-73
2022/11/12 15:04:36;;;;;;;19.63;13.45;;;14.90;96.70;;;;;;5105921;27;20082;-73
2022/11/12 15:07:29;;;;;;;17.42;11.63;;;14.90;96.70;;;;;;5104025;27;20130;-73
2022/11/12 15:10:34;;;;;;;18.92;12.35;;;14.80;96.70;;;;;;5111582;27;20055;-73
2022/11/12 15:13:23;;;;;;;19.95;14.00;;;14.80;96.70;;;;;;5105474;27;20054;-73
2022/11/12 15:16:15;;;;;;;16.83;11.65;;;14.80;96.70;;;;;;5119848;27;21053;-74
2022/11/12 15:19:21;;;;;;;19.05;13.00;;;14.70;96.70;;;;;;5123525;27;20107;-73
2022/11/12 15:22:20;;;;;;;19.80;14.75;;;14.70;96.70;;;;;;5113116;27;20050;-73
2022/11/12 15:25:21;;;;;;;21.38;15.27;;;14.70;96.70;;;;;;5121450;27;20180;-73
2022/11/12 15:28:19;;;;;;;20.00;14.18;;;14.60;96.70;;;;;;5104780;27;20053;-73
2022/11/12 15:31:28;;;;;;;23.27;15.35;;;14.60;96.70;;;;;;5104538;27;20181;-73
2022/11/12 15:34:44;;;;;;;20.17;15.45;;;14.60;96.70;;;;;;5065833;28;20535;-73
2022/11/12 15:37:39;;;;;;;22.73;14.77;;;14.50;96.70;;;;;;5108189;27;20168;-74
2022/11/12 15:40:28;;;;;;;23.10;15.55;;;14.50;96.70;;;;;;5118458;27;20113;-75
2022/11/12 15:43:20;;;;;;;34.65;23.83;;;14.50;96.70;;;;;;5091306;28;20258;-74
2022/11/12 15:46:13;;;;;;;25.25;18.08;;;14.40;96.70;;;;;;5110978;27;20836;-74
2022/11/12 15:49:00;;;;;;;31.30;19.38;;;14.40;96.70;;;;;;5091729;28;20047;-74
2022/11/12 15:51:47;;;;;;;32.92;18.25;;;14.30;96.70;;;;;;5104193;27;20490;-74
2022/11/12 15:54:33;;;;;;;28.05;18.17;;;14.30;96.70;;;;;;5118306;27;20054;-75
2022/11/12 15:57:30;;;;;;;25.73;16.92;;;14.30;96.70;;;;;;5106698;27;20058;-74
2022/11/12 16:00:18;;;;;;;34.83;15.35;;;14.20;96.70;;;;;;5101382;28;20705;-75
2022/11/12 16:03:12;;;;;;;23.05;15.88;;;14.20;96.70;;;;;;5114294;27;20059;-74
2022/11/12 16:06:11;;;;;;;28.55;18.63;;;14.20;96.70;;;;;;5108992;27;20519;-75
2022/11/12 16:08:58;;;;;;;27.52;19.95;;;14.20;96.70;;;;;;5113181;27;20058;-75
2022/11/12 16:11:56;;;;;;;25.25;17.77;;;14.20;96.70;;;;;;5108994;27;20076;-75
2022/11/12 16:14:44;;;;;;;29.42;17.83;;;14.10;96.70;;;;;;5101151;27;20050;-75
2022/11/12 16:17:31;;;;;;;24.83;17.25;;;14.20;96.70;;;;;;5100200;28;20097;-74
2022/11/12 16:20:20;;;;;;;35.55;19.13;;;14.20;96.70;;;;;;5097372;27;20054;-74
2022/11/12 16:23:06;;;;;;;29.98;18.65;;;14.20;96.70;;;;;;5103248;27;20760;-74
2022/11/12 16:25:53;;;;;;;26.92;18.92;;;14.10;96.70;;;;;;5105949;27;20054;-74
2022/11/12 16:28:40;;;;;;;32.15;19.92;;;14.10;96.70;;;;;;5087631;28;20046;-73
2022/11/12 16:31:28;;;;;;;26.02;18.80;;;14.10;96.70;;;;;;5108812;27;21197;-74
2022/11/12 16:34:15;;;;;;;32.58;21.48;;;14.10;96.70;;;;;;5115518;27;20199;-73
2022/11/12 16:37:01;;;;;;;31.52;20.35;;;14.00;96.70;;;;;;5116284;27;20050;-73
2022/11/12 16:39:48;;;;;;;30.42;21.98;;;13.90;96.70;;;;;;5109927;27;20054;-73
2022/11/12 16:42:34;;;;;;;27.67;19.20;;;13.90;96.70;;;;;;5076146;28;20058;-73
2022/11/12 16:45:22;;;;;;;32.28;19.48;;;13.90;96.70;;;;;;5076039;28;20082;-72
2022/11/12 16:48:15;;;;;;;29.10;20.02;;;13.90;96.70;;;;;;5066750;28;20174;-73
2022/11/12 16:51:02;;;;;;;27.77;19.25;;;13.90;96.70;;;;;;5074732;28;20134;-72
2022/11/12 16:53:48;;;;;;;27.85;19.48;;;13.90;96.70;;;;;;5077788;28;20070;-72
2022/11/12 16:56:36;;;;;;;26.55;18.55;;;13.90;96.70;;;;;;5074272;28;20531;-73
2022/11/12 16:59:22;;;;;;;30.13;20.83;;;13.90;96.70;;;;;;5072270;28;20070;-72
2022/11/12 17:02:16;;;;;;;28.60;20.33;;;13.90;96.70;;;;;;5075341;28;20189;-74
2022/11/12 17:05:06;;;;;;;38.05;23.63;;;13.90;96.70;;;;;;5077159;28;20051;-73
2022/11/12 17:07:56;;;;;;;33.30;21.60;;;13.90;96.70;;;;;;5064298;28;20089;-73
2022/11/12 17:10:42;;;;;;;27.13;18.95;;;13.80;96.70;;;;;;5070723;28;20073;-73